Kanesville, Utah
Current Conditions -  °F | °C
As of 8:53 AM on Saturday 20 Dec 2014 (Local Time) from KOGD Reporting Station
Overcast Overcast  
Wind Chill:   Ceiling: 2700
Heat Index:   Visibility: 10mi
Dew Point:   Wind: 6mph
Humidity: 96%   Direction: 100°E
Pressure: 30.11"   Gusts: NA
Location:  41.1783°N, 112.12°W
Report Text: KOGD 201553Z 10005KT 10SM FEW018 BKN027 OVC033 03/02 A3011 RMK AO2 RAB11E48 SLP193 P0004 T00280022
Loading
Personal Weather Stations






























Interactive Weather Map New forecast layout! Learn more

10-Day Weather Forecast

Advertisements
Track Severe Weather on mobile